Time;durP1;ratioP1;P1;durP2;ratioP2;P2;SDS_P1;SDS_P2;PMS_P1;PMS_P2;Temp;Humidity;BMP_temperature;BMP_pressure;BME280_temperature;BME280_humidity;BME280_pressure;Samples;Min_cycle;Max_cycle;Signal;HPM_P1;HPM_P2
2022/03/26 00:01:50;;;;;;;72.45;30.17;;;;;;;4.59;42.85;99565.75;4954166;28;20599;-80
2022/03/26 00:04:15;;;;;;;67.82;30.15;;;;;;;4.56;43.25;99566.19;4952758;28;20050;-71
2022/03/26 00:06:40;;;;;;;68.63;31.02;;;;;;;4.55;42.84;99566.44;4952281;28;20039;-75
2022/03/26 00:09:06;;;;;;;60.78;28.73;;;;;;;4.56;42.82;99568.09;4950547;28;20049;-75
2022/03/26 00:11:31;;;;;;;63.03;28.15;;;;;;;4.57;42.73;99550.75;4952070;28;20066;-74
2022/03/26 00:13:57;;;;;;;55.13;25.67;;;;;;;4.59;43.05;99554.88;4951981;28;20058;-75
2022/03/26 00:16:22;;;;;;;56.90;26.08;;;;;;;4.59;43.13;99560.31;4951115;28;20197;-75
2022/03/26 00:18:48;;;;;;;61.90;27.63;;;;;;;4.58;43.38;99553.22;4951985;28;20388;-75
2022/03/26 00:21:13;;;;;;;60.78;26.55;;;;;;;4.58;42.97;99555.13;4951390;28;20019;-74
2022/03/26 00:23:39;;;;;;;54.22;25.02;;;;;;;4.56;43.57;99555.34;4951791;28;20476;-74
2022/03/26 00:26:04;;;;;;;52.35;25.00;;;;;;;4.56;43.39;99554.53;4951614;28;20031;-75
2022/03/26 00:28:30;;;;;;;56.75;25.95;;;;;;;4.54;43.23;99552.00;4952738;28;20031;-74
2022/03/26 00:30:56;;;;;;;58.55;25.33;;;;;;;4.55;44.03;99552.88;4950720;28;20031;-75
2022/03/26 00:33:21;;;;;;;55.42;24.13;;;;;;;4.54;43.86;99546.59;4951314;28;20028;-74
2022/03/26 00:35:47;;;;;;;51.17;23.60;;;;;;;4.54;43.80;99553.91;4951664;28;20722;-75
2022/03/26 00:38:13;;;;;;;53.28;25.42;;;;;;;4.53;43.64;99560.41;4950509;28;20109;-75
2022/03/26 00:40:40;;;;;;;59.88;25.13;;;;;;;4.52;43.12;99553.31;4949989;28;20036;-75
2022/03/26 00:43:06;;;;;;;47.25;21.88;;;;;;;4.52;44.01;99545.97;4951197;28;20058;-75
2022/03/26 00:45:32;;;;;;;59.75;27.65;;;;;;;4.49;44.31;99537.47;4952697;28;20486;-75
2022/03/26 00:47:59;;;;;;;62.38;28.33;;;;;;;4.44;44.70;99539.00;4951421;28;20035;-75
2022/03/26 00:50:25;;;;;;;64.22;28.02;;;;;;;4.47;43.57;99545.88;4950805;28;20027;-75
2022/03/26 00:52:51;;;;;;;60.78;27.35;;;;;;;4.42;43.90;99543.81;4951345;28;20034;-73
2022/03/26 00:55:16;;;;;;;65.15;29.15;;;;;;;4.40;43.84;99545.94;4951003;28;20038;-75
2022/03/26 00:57:42;;;;;;;67.57;30.23;;;;;;;4.37;43.70;99543.69;4951695;28;20031;-74
2022/03/26 01:00:09;;;;;;;85.03;37.88;;;;;;;4.35;43.87;99542.25;4950558;28;20035;-74
2022/03/26 01:02:34;;;;;;;85.18;40.17;;;;;;;4.29;44.26;99544.81;4952009;28;20102;-74
2022/03/26 01:05:00;;;;;;;80.80;37.05;;;;;;;4.25;44.04;99538.19;4951006;28;20098;-74
2022/03/26 01:07:26;;;;;;;81.47;36.05;;;;;;;4.24;44.36;99544.69;4950664;28;20035;-75
2022/03/26 01:09:53;;;;;;;83.28;36.80;;;;;;;4.25;44.31;99542.81;4954278;28;20090;-74
2022/03/26 01:12:20;;;;;;;85.65;34.83;;;;;;;4.28;44.12;99548.59;4958230;28;20042;-75
2022/03/26 01:14:46;;;;;;;70.07;33.33;;;;;;;4.22;44.87;99548.69;4957505;28;20098;-74
2022/03/26 01:17:12;;;;;;;77.32;33.92;;;;;;;4.10;44.92;99538.56;4957334;28;20030;-74
2022/03/26 01:19:37;;;;;;;77.97;35.22;;;;;;;4.10;44.97;99541.28;4957318;28;20035;-75
2022/03/26 01:22:03;;;;;;;73.47;32.40;;;;;;;4.07;44.97;99536.31;4955763;28;20031;-74
2022/03/26 01:24:28;;;;;;;69.00;32.53;;;;;;;3.98;45.06;99543.09;4956071;28;20109;-75
2022/03/26 01:26:54;;;;;;;78.68;34.75;;;;;;;3.89;44.50;99537.16;4957657;28;20035;-74
2022/03/26 01:29:19;;;;;;;68.97;31.88;;;;;;;3.83;45.30;99540.75;4958272;28;20043;-75
2022/03/26 01:31:44;;;;;;;66.95;31.15;;;;;;;3.77;45.15;99538.94;4957190;28;20451;-75
2022/03/26 01:34:10;;;;;;;74.05;32.42;;;;;;;3.73;45.51;99541.28;4957497;28;20027;-75
2022/03/26 01:36:35;;;;;;;73.30;32.58;;;;;;;3.69;44.98;99538.16;4957730;28;20027;-75
2022/03/26 01:39:02;;;;;;;73.75;33.47;;;;;;;3.68;45.11;99538.41;4957703;28;20035;-74
2022/03/26 01:41:27;;;;;;;72.22;34.38;;;;;;;3.65;45.34;99539.69;4961070;28;20538;-75
2022/03/26 01:43:53;;;;;;;81.00;36.47;;;;;;;3.66;45.83;99535.09;4957977;28;20027;-75
2022/03/26 01:46:20;;;;;;;79.90;35.25;;;;;;;3.71;46.05;99537.97;4956012;28;20039;-74
2022/03/26 01:48:47;;;;;;;84.07;36.90;;;;;;;3.74;45.38;99542.94;4958257;28;20035;-74
2022/03/26 01:51:15;;;;;;;83.70;36.53;;;;;;;3.74;46.29;99540.22;4957214;28;20051;-74
2022/03/26 01:53:46;;;;;;;81.38;34.85;;;;;;;3.69;45.92;99543.59;4957884;28;20464;-75
2022/03/26 01:56:13;;;;;;;76.22;35.17;;;;;;;3.62;46.31;99531.16;4957231;28;20106;-75
2022/03/26 01:58:38;;;;;;;75.82;34.13;;;;;;;3.58;46.21;99538.94;4957897;28;20035;-75
2022/03/26 02:01:04;;;;;;;79.25;33.38;;;;;;;3.58;46.38;99533.50;4957723;28;20027;-75
2022/03/26 02:03:29;;;;;;;71.30;33.80;;;;;;;3.55;46.22;99529.34;4957400;28;20031;-75
2022/03/26 02:05:55;;;;;;;76.90;35.05;;;;;;;3.51;46.37;99519.19;4957880;28;20487;-75
2022/03/26 02:08:21;;;;;;;76.53;33.28;;;;;;;3.44;46.18;99527.38;4959079;28;20395;-74
2022/03/26 02:10:46;;;;;;;71.35;32.15;;;;;;;3.44;46.15;99527.38;4957217;28;20471;-74
2022/03/26 02:13:12;;;;;;;67.95;31.38;;;;;;;3.42;46.54;99529.50;4957021;28;20130;-74
2022/03/26 02:15:37;;;;;;;72.38;32.67;;;;;;;3.43;46.44;99531.16;4957326;28;20039;-75
2022/03/26 02:18:03;;;;;;;73.18;33.33;;;;;;;3.44;47.18;99530.09;4956867;28;20035;-74
2022/03/26 02:20:30;;;;;;;62.08;30.40;;;;;;;3.35;46.70;99526.81;4956495;28;20472;-75
2022/03/26 02:22:56;;;;;;;64.95;29.42;;;;;;;3.33;47.30;99537.06;4955681;28;20474;-75
2022/03/26 02:25:22;;;;;;;64.88;30.10;;;;;;;3.28;46.97;99535.03;4956488;28;20033;-75
2022/03/26 02:27:47;;;;;;;68.97;30.25;;;;;;;3.26;47.20;99537.13;4955870;28;20089;-75
2022/03/26 02:30:13;;;;;;;60.05;27.05;;;;;;;3.30;47.54;99533.97;4952355;28;20031;-75
2022/03/26 02:32:39;;;;;;;66.35;29.20;;;;;;;3.33;47.81;99542.47;4955012;28;20032;-75
2022/03/26 02:35:05;;;;;;;66.10;29.83;;;;;;;3.32;47.99;99538.09;4953627;28;20023;-75
2022/03/26 02:37:33;;;;;;;64.90;30.08;;;;;;;3.35;48.04;99531.41;4954906;28;20491;-75
2022/03/26 02:39:59;;;;;;;72.38;30.63;;;;;;;3.36;48.71;99530.38;4954655;28;20032;-75
2022/03/26 02:42:24;;;;;;;71.38;32.58;;;;;;;3.37;48.00;99530.13;4953912;28;20062;-75
2022/03/26 02:44:50;;;;;;;66.88;28.88;;;;;;;3.37;48.35;99524.72;4954135;28;20125;-74
2022/03/26 02:47:15;;;;;;;74.32;32.08;;;;;;;3.36;48.72;99527.66;4953666;28;20033;-74
2022/03/26 02:49:41;;;;;;;75.65;32.38;;;;;;;3.35;49.21;99526.81;4953777;28;20165;-74
2022/03/26 02:52:07;;;;;;;76.30;31.48;;;;;;;3.34;49.17;99533.28;4953504;28;20020;-75
2022/03/26 02:54:33;;;;;;;72.47;31.17;;;;;;;3.32;49.51;99529.16;4954484;28;20037;-75
2022/03/26 02:56:59;;;;;;;65.90;30.60;;;;;;;3.30;49.24;99528.53;4953312;28;20106;-75
2022/03/26 02:59:24;;;;;;;69.18;29.75;;;;;;;3.30;49.65;99523.13;4953935;28;20106;-74
2022/03/26 03:01:53;;;;;;;60.97;27.75;;;;;;;3.32;49.61;99523.72;4954412;28;20038;-75
2022/03/26 03:04:22;;;;;;;68.22;27.98;;;;;;;3.33;49.78;99517.25;4954590;28;20458;-75
2022/03/26 03:06:48;;;;;;;63.40;27.67;;;;;;;3.34;49.87;99517.03;4954612;28;20039;-75
2022/03/26 03:09:14;;;;;;;62.83;27.90;;;;;;;3.35;50.09;99515.16;4953987;28;20062;-75
2022/03/26 03:11:40;;;;;;;63.90;27.48;;;;;;;3.35;50.88;99523.28;4954055;28;20635;-75
2022/03/26 03:14:06;;;;;;;63.10;27.48;;;;;;;3.37;50.86;99529.31;4954390;28;20027;-74
2022/03/26 03:16:32;;;;;;;62.42;28.90;;;;;;;3.36;51.18;99523.06;4954443;28;20042;-74
2022/03/26 03:18:58;;;;;;;63.00;27.17;;;;;;;3.37;50.35;99521.19;4955216;28;20110;-75
2022/03/26 03:21:24;;;;;;;61.00;28.08;;;;;;;3.38;50.84;99530.97;4953711;28;20087;-75
2022/03/26 03:23:49;;;;;;;55.22;25.35;;;;;;;3.38;50.67;99523.66;4954207;28;20038;-75
2022/03/26 03:26:15;;;;;;;55.65;25.20;;;;;;;3.40;50.48;99512.59;4953570;28;20148;-75
2022/03/26 03:28:42;;;;;;;58.90;28.52;;;;;;;3.43;50.09;99514.88;4954270;28;20035;-76
2022/03/26 03:31:07;;;;;;;61.00;28.52;;;;;;;3.45;50.77;99515.47;4953458;28;20072;-75
2022/03/26 03:33:33;;;;;;;69.32;30.80;;;;;;;3.47;50.52;99515.25;4957040;28;20030;-75
2022/03/26 03:35:58;;;;;;;61.13;26.98;;;;;;;3.47;51.28;99512.53;4954732;28;20094;-75
2022/03/26 03:38:25;;;;;;;411.50;113.78;;;;;;;3.47;51.41;99512.53;4953342;28;20039;-74
2022/03/26 03:40:51;;;;;;;262.85;76.78;;;;;;;3.48;51.17;99514.19;4953661;28;20035;-75
2022/03/26 03:43:16;;;;;;;97.43;36.13;;;;;;;3.49;51.11;99516.66;4953461;28;20372;-75
2022/03/26 03:45:42;;;;;;;65.72;28.20;;;;;;;3.49;51.03;99510.44;4953561;28;20046;-75
2022/03/26 03:48:07;;;;;;;67.95;28.05;;;;;;;3.49;52.01;99511.25;4953286;28;20041;-75
2022/03/26 03:50:33;;;;;;;120.25;48.83;;;;;;;3.48;52.19;99506.88;4953735;28;20023;-75
2022/03/26 03:52:58;;;;;;;89.72;36.17;;;;;;;3.44;50.86;99505.69;4953560;28;20055;-75
2022/03/26 03:55:24;;;;;;;66.82;29.10;;;;;;;3.45;50.81;99504.63;4953376;28;20039;-76
2022/03/26 03:57:50;;;;;;;65.72;28.20;;;;;;;3.43;51.15;99507.56;4953777;28;20086;-75
2022/03/26 04:00:15;;;;;;;81.95;32.53;;;;;;;3.41;51.09;99504.22;4952707;28;20394;-75
2022/03/26 04:02:42;;;;;;;76.35;30.25;;;;;;;3.39;50.75;99505.53;4953258;28;20055;-75
2022/03/26 04:05:09;;;;;;;64.00;27.95;;;;;;;3.37;51.30;99507.63;4953225;28;20468;-75
2022/03/26 04:07:36;;;;;;;72.95;31.55;;;;;;;3.33;51.07;99501.00;4953075;28;20062;-76
2022/03/26 04:10:04;;;;;;;70.45;30.60;;;;;;;3.28;51.08;99499.78;4952759;28;20495;-75
2022/03/26 04:12:30;;;;;;;70.00;28.55;;;;;;;3.28;51.66;99497.06;4953177;28;20078;-75
2022/03/26 04:14:55;;;;;;;60.13;28.58;;;;;;;3.26;51.83;99496.44;4953099;28;20387;-75
2022/03/26 04:17:21;;;;;;;66.13;29.45;;;;;;;3.27;51.95;99499.97;4952931;28;20043;-75
2022/03/26 04:19:46;;;;;;;64.70;28.38;;;;;;;3.25;51.84;99494.78;4951967;28;20034;-75
2022/03/26 04:22:12;;;;;;;64.40;27.27;;;;;;;3.27;51.68;99494.56;4952566;28;20127;-75
2022/03/26 04:24:40;;;;;;;60.78;26.20;;;;;;;3.29;51.60;99497.88;4953700;28;20055;-75
2022/03/26 04:27:05;;;;;;;57.25;25.75;;;;;;;3.33;51.98;99504.50;4951423;28;20058;-75
2022/03/26 04:29:31;;;;;;;56.65;25.95;;;;;;;3.40;51.32;99508.00;4952866;28;20489;-76
2022/03/26 04:31:56;;;;;;;55.08;24.23;;;;;;;3.45;52.33;99495.66;4952547;28;20426;-76
2022/03/26 04:34:22;;;;;;;52.83;25.15;;;;;;;3.50;51.93;99501.25;4952530;28;20109;-76
2022/03/26 04:36:47;;;;;;;64.60;25.90;;;;;;;3.56;51.74;99501.16;4953151;28;20110;-76
2022/03/26 04:39:13;;;;;;;54.50;24.33;;;;;;;3.63;52.24;99500.28;4953445;28;20027;-76
2022/03/26 04:41:38;;;;;;;56.75;25.08;;;;;;;3.69;52.66;99493.94;4951001;28;20048;-76
2022/03/26 04:44:05;;;;;;;54.13;24.08;;;;;;;3.71;51.69;99500.78;4952033;28;20034;-75
2022/03/26 04:46:30;;;;;;;54.05;23.70;;;;;;;3.75;52.44;99501.19;4950543;28;20039;-76
2022/03/26 04:48:56;;;;;;;51.90;23.98;;;;;;;3.76;52.45;99500.13;4952803;28;20047;-76
2022/03/26 04:51:22;;;;;;;61.10;26.75;;;;;;;3.78;51.69;99503.47;4952030;28;20094;-76
2022/03/26 04:53:48;;;;;;;52.13;22.42;;;;;;;3.80;52.06;99498.63;4952838;28;20027;-76
2022/03/26 04:56:14;;;;;;;59.65;25.70;;;;;;;3.82;52.01;99498.41;4952891;28;20051;-76
2022/03/26 04:58:39;;;;;;;50.33;22.15;;;;;;;3.85;51.70;99501.50;4952568;28;20046;-76
2022/03/26 05:01:06;;;;;;;52.85;23.85;;;;;;;3.85;52.17;99498.78;4952087;28;20031;-75
2022/03/26 05:03:31;;;;;;;52.42;25.75;;;;;;;3.87;51.96;99499.34;4952331;28;20016;-76
2022/03/26 05:05:57;;;;;;;58.50;26.15;;;;;;;3.83;52.55;99495.47;4952541;28;20031;-76
2022/03/26 05:08:22;;;;;;;57.38;27.85;;;;;;;3.83;52.19;99498.19;4952873;28;20099;-76
2022/03/26 05:10:48;;;;;;;56.63;25.95;;;;;;;3.80;51.18;99487.78;4951043;28;20082;-76
2022/03/26 05:13:13;;;;;;;63.65;28.63;;;;;;;3.78;52.32;99491.75;4952317;28;20031;-76
2022/03/26 05:15:39;;;;;;;57.22;27.73;;;;;;;3.77;52.37;99487.38;4952484;28;20110;-76
2022/03/26 05:18:04;;;;;;;61.60;28.25;;;;;;;3.75;52.82;99493.06;4951675;28;20066;-75
2022/03/26 05:20:30;;;;;;;62.17;29.20;;;;;;;3.73;52.00;99492.44;4952398;28;20455;-76
2022/03/26 05:22:55;;;;;;;61.45;31.45;;;;;;;3.73;52.28;99503.31;4952074;28;21357;-76
2022/03/26 05:25:21;;;;;;;72.55;32.47;;;;;;;3.70;52.10;99485.56;4952173;28;20378;-75
2022/03/26 05:27:51;;;;;;;68.78;32.13;;;;;;;3.70;52.38;99490.19;4952353;28;20085;-76
2022/03/26 05:30:18;;;;;;;70.00;33.88;;;;;;;3.71;52.96;99489.13;4951536;28;20067;-76
2022/03/26 05:32:44;;;;;;;69.72;34.72;;;;;;;3.74;53.08;99488.69;4952163;28;20471;-76
2022/03/26 05:35:14;;;;;;;67.93;35.22;;;;;;;3.75;52.93;99493.06;4952060;28;20035;-76
2022/03/26 05:37:43;;;;;;;69.20;33.43;;;;;;;3.77;53.05;99493.66;4952333;28;20056;-76
2022/03/26 05:40:10;;;;;;;76.75;37.47;;;;;;;3.80;53.92;99479.63;4951563;28;20031;-75
2022/03/26 05:42:36;;;;;;;80.63;36.92;;;;;;;3.80;53.13;99486.94;4949708;28;20039;-76
2022/03/26 05:45:07;;;;;;;73.32;33.83;;;;;;;3.83;53.76;99483.78;4952096;28;20043;-75
2022/03/26 05:47:34;;;;;;;72.38;35.25;;;;;;;3.85;53.48;99490.66;4950664;28;20046;-76
2022/03/26 05:50:00;;;;;;;79.32;37.25;;;;;;;3.86;53.28;99486.88;4951956;28;20043;-76
2022/03/26 05:52:26;;;;;;;70.15;33.35;;;;;;;3.91;53.84;99483.47;4953418;28;20110;-75
2022/03/26 05:54:51;;;;;;;73.15;35.20;;;;;;;3.96;53.70;99490.91;4953498;28;20058;-76
2022/03/26 05:57:18;;;;;;;63.85;32.75;;;;;;;4.01;54.46;99486.50;4954222;28;20039;-76
2022/03/26 05:59:44;;;;;;;73.15;35.78;;;;;;;4.07;53.55;99492.88;4955350;28;20023;-76
2022/03/26 06:02:12;;;;;;;81.95;37.40;;;;;;;4.13;53.88;99486.53;4956608;28;20031;-76
2022/03/26 06:04:37;;;;;;;70.55;34.72;;;;;;;4.21;53.45;99493.53;4957153;28;20037;-75
2022/03/26 06:07:03;;;;;;;74.22;36.58;;;;;;;4.28;54.48;99482.59;4956972;28;20031;-75
2022/03/26 06:09:28;;;;;;;68.68;34.53;;;;;;;4.36;53.57;99487.69;4955867;28;20043;-75
2022/03/26 06:11:55;;;;;;;65.03;33.25;;;;;;;4.45;54.22;99485.50;4938954;28;20031;-75
2022/03/26 06:14:21;;;;;;;66.05;31.58;;;;;;;4.55;54.56;99490.38;4956443;28;20039;-76
2022/03/26 06:16:46;;;;;;;67.10;32.88;;;;;;;4.66;53.80;99486.03;4956890;28;20158;-75
2022/03/26 06:19:13;;;;;;;65.10;31.52;;;;;;;4.77;53.42;99482.53;4958951;28;20029;-75
2022/03/26 06:21:38;;;;;;;65.32;29.70;;;;;;;4.89;53.56;99482.53;4956188;28;20129;-75
2022/03/26 06:24:05;;;;;;;58.85;29.88;;;;;;;5.00;53.48;99489.91;4956082;28;20506;-75
2022/03/26 06:26:30;;;;;;;62.65;29.50;;;;;;;5.12;53.40;99498.06;4956227;28;20074;-76
2022/03/26 06:28:56;;;;;;;61.80;28.38;;;;;;;5.21;53.54;99495.81;4959095;28;20075;-76
2022/03/26 06:31:22;;;;;;;63.92;30.15;;;;;;;5.32;52.55;99505.88;4955626;28;20023;-76
2022/03/26 06:33:48;;;;;;;62.90;29.48;;;;;;;5.41;52.53;99502.81;4957615;28;20031;-75
2022/03/26 06:36:13;;;;;;;62.53;28.73;;;;;;;5.50;52.75;99504.94;4955915;28;20031;-75
2022/03/26 06:38:41;;;;;;;63.13;29.92;;;;;;;5.60;52.87;99508.97;4958571;28;20154;-75
2022/03/26 06:41:07;;;;;;;65.70;29.75;;;;;;;5.68;52.86;99500.44;4955319;28;20024;-75
2022/03/26 06:43:33;;;;;;;63.22;29.63;;;;;;;5.78;52.64;99508.81;4955997;28;20035;-75
2022/03/26 06:45:58;;;;;;;57.00;27.73;;;;;;;5.90;52.84;99507.97;4956266;28;20170;-76
2022/03/26 06:48:24;;;;;;;66.13;28.85;;;;;;;6.02;51.92;99513.44;4955837;28;20046;-76
2022/03/26 06:50:49;;;;;;;59.72;28.10;;;;;;;6.15;52.27;99506.88;4950511;28;20046;-76
2022/03/26 06:53:14;;;;;;;53.65;25.77;;;;;;;6.31;51.94;99503.41;4955073;28;20479;-76
2022/03/26 06:55:41;;;;;;;58.10;25.80;;;;;;;6.51;52.09;99510.34;4952738;28;20038;-76
2022/03/26 06:58:06;;;;;;;58.72;27.38;;;;;;;6.67;51.61;99506.00;4954629;28;20039;-75
2022/03/26 07:00:32;;;;;;;50.72;23.58;;;;;;;6.82;51.82;99524.53;4955314;28;20046;-75
2022/03/26 07:02:57;;;;;;;58.55;27.73;;;;;;;6.98;51.03;99507.34;4956055;28;20037;-76
2022/03/26 07:05:23;;;;;;;52.08;25.35;;;;;;;7.12;51.45;99510.59;4955002;28;20070;-75
2022/03/26 07:07:48;;;;;;;52.58;24.48;;;;;;;7.29;51.17;99507.03;4955324;28;20079;-76
2022/03/26 07:10:14;;;;;;;49.50;24.50;;;;;;;7.45;50.98;99517.13;4954843;28;20042;-76
2022/03/26 07:12:39;;;;;;;50.08;24.63;;;;;;;7.58;50.45;99512.38;4955571;28;20027;-76
2022/03/26 07:15:05;;;;;;;51.45;24.45;;;;;;;7.74;50.70;99511.53;4954509;28;20023;-76
2022/03/26 07:17:30;;;;;;;50.20;24.27;;;;;;;7.87;50.21;99517.72;4955400;28;20106;-76
2022/03/26 07:19:56;;;;;;;42.20;21.70;;;;;;;7.93;50.20;99516.69;4955575;28;20102;-76
2022/03/26 07:22:21;;;;;;;48.65;23.35;;;;;;;8.03;50.15;99505.06;4954959;28;20031;-77
2022/03/26 07:24:47;;;;;;;49.47;25.77;;;;;;;8.13;49.60;99509.84;4956308;28;20460;-77
2022/03/26 07:27:12;;;;;;;46.45;23.70;;;;;;;8.26;49.75;99511.34;4955137;28;20031;-77
2022/03/26 07:29:39;;;;;;;53.30;24.95;;;;;;;8.35;49.31;99513.38;4955555;28;20023;-77
2022/03/26 07:32:07;;;;;;;46.40;22.63;;;;;;;8.43;49.43;99520.31;4953813;28;20053;-77
2022/03/26 07:34:33;;;;;;;51.30;25.55;;;;;;;8.52;48.84;99514.44;4955264;28;20557;-77
2022/03/26 07:36:58;;;;;;;45.95;21.27;;;;;;;8.64;49.18;99515.09;4953243;28;20092;-76
2022/03/26 07:39:24;;;;;;;48.88;24.63;;;;;;;8.71;49.11;99518.44;4954964;28;20055;-74
2022/03/26 07:41:49;;;;;;;49.70;24.00;;;;;;;8.78;48.54;99513.59;4953575;28;20543;-74
2022/03/26 07:44:15;;;;;;;47.03;23.23;;;;;;;8.89;48.96;99517.25;4954420;28;20420;-75
2022/03/26 07:46:40;;;;;;;43.35;22.52;;;;;;;9.04;49.00;99516.56;4953552;28;20042;-74
2022/03/26 07:49:06;;;;;;;45.80;21.77;;;;;;;9.16;48.38;99502.75;4954711;28;20027;-74
2022/03/26 07:51:31;;;;;;;38.95;19.85;;;;;;;9.28;48.86;99502.56;4952913;28;20030;-75
2022/03/26 07:53:57;;;;;;;40.42;21.55;;;;;;;9.41;48.60;99501.28;4953123;28;20031;-74
2022/03/26 07:56:22;;;;;;;38.63;20.20;;;;;;;9.53;49.01;99504.66;4954266;28;20089;-76
2022/03/26 07:58:49;;;;;;;44.10;20.25;;;;;;;9.64;47.95;99505.53;4954671;28;20015;-76
2022/03/26 08:01:14;;;;;;;35.42;19.50;;;;;;;9.70;48.17;99498.16;4955063;28;20388;-77
2022/03/26 08:03:40;;;;;;;40.67;20.45;;;;;;;9.77;48.32;99508.91;4951971;28;20035;-75
2022/03/26 08:06:06;;;;;;;41.60;20.92;;;;;;;9.82;47.83;99501.53;4949918;28;20032;-78
2022/03/26 08:08:32;;;;;;;39.72;20.25;;;;;;;9.88;47.45;99493.34;4953658;28;20043;-78
2022/03/26 08:10:57;;;;;;;39.33;20.30;;;;;;;10.01;47.71;99495.56;4951831;28;20082;-76
2022/03/26 08:13:22;;;;;;;34.35;18.95;;;;;;;10.08;47.37;99493.44;4953539;28;20034;-76
2022/03/26 08:15:48;;;;;;;40.95;19.92;;;;;;;10.15;47.80;99489.63;4954876;28;20109;-76
2022/03/26 08:18:15;;;;;;;36.38;19.75;;;;;;;10.26;47.23;99497.59;4953784;28;20046;-76
2022/03/26 08:20:40;;;;;;;40.10;19.85;;;;;;;10.38;47.11;99491.91;4954036;28;20496;-76
2022/03/26 08:23:06;;;;;;;40.45;20.05;;;;;;;10.46;47.50;99487.84;4955591;28;20054;-79
2022/03/26 08:28:32;;;;;;;34.95;18.17;;;;;;;10.69;47.24;99488.44;4896053;29;20231;-75
2022/03/26 08:30:57;;;;;;;31.02;18.17;;;;;;;10.85;46.67;99481.88;4940607;28;20125;-78
2022/03/26 08:33:23;;;;;;;31.02;17.00;;;;;;;10.91;46.69;99482.69;4951173;28;20034;-77
2022/03/26 08:35:48;;;;;;;34.03;17.17;;;;;;;10.98;46.66;99483.25;4952698;28;20031;-75
2022/03/26 08:38:14;;;;;;;34.15;18.42;;;;;;;11.04;46.62;99480.50;4952244;28;20031;-77
2022/03/26 08:40:40;;;;;;;35.45;18.10;;;;;;;11.18;46.60;99481.63;4953202;28;20382;-78
2022/03/26 08:43:06;;;;;;;34.70;18.15;;;;;;;11.27;46.03;99473.66;4952070;28;20383;-78
2022/03/26 08:45:32;;;;;;;31.15;15.85;;;;;;;11.38;46.25;99480.78;4956486;28;20121;-77
2022/03/26 08:47:58;;;;;;;34.08;17.17;;;;;;;11.54;46.43;99478.84;4948984;28;20082;-78
2022/03/26 08:50:23;;;;;;;29.80;15.77;;;;;;;11.71;46.18;99478.53;4951163;28;20519;-78
2022/03/26 08:52:49;;;;;;;32.90;15.52;;;;;;;11.83;45.30;99467.22;4953124;28;20110;-78
2022/03/26 08:55:16;;;;;;;35.42;16.23;;;;;;;11.95;45.35;99468.84;4954313;28;20023;-78
2022/03/26 08:57:41;;;;;;;30.50;15.65;;;;;;;12.04;45.58;99465.25;4955670;28;20082;-78
2022/03/26 09:00:09;;;;;;;33.42;17.73;;;;;;;12.14;44.88;99469.88;4956785;28;20035;-78
2022/03/26 09:02:37;;;;;;;33.15;17.00;;;;;;;12.26;45.43;99460.47;4949406;28;20035;-77
2022/03/26 09:05:04;;;;;;;33.03;16.33;;;;;;;12.35;45.04;99458.78;4951335;28;20399;-79
2022/03/26 09:07:29;;;;;;;35.55;17.00;;;;;;;12.40;44.45;99458.75;4953085;28;20463;-78
2022/03/26 09:09:55;;;;;;;31.75;15.55;;;;;;;12.45;44.65;99455.13;4953456;28;20107;-78
2022/03/26 09:12:21;;;;;;;31.52;15.85;;;;;;;12.54;44.87;99442.44;4953131;28;20031;-75
2022/03/26 09:14:46;;;;;;;30.85;15.40;;;;;;;12.62;44.17;99457.50;4946603;28;20031;-78
2022/03/26 09:17:12;;;;;;;29.27;14.63;;;;;;;12.70;43.56;99456.06;4953500;28;20036;-78
2022/03/26 09:19:37;;;;;;;29.73;15.02;;;;;;;12.72;43.36;99449.19;4952727;28;20061;-78
2022/03/26 09:22:03;;;;;;;32.28;15.32;;;;;;;12.72;44.04;99451.94;4951074;28;20035;-79
2022/03/26 09:24:28;;;;;;;30.23;15.13;;;;;;;12.75;44.10;99451.38;4950800;28;20031;-78
2022/03/26 09:26:54;;;;;;;29.65;15.75;;;;;;;12.85;44.32;99444.13;4953697;28;20046;-78
2022/03/26 09:29:19;;;;;;;32.90;16.27;;;;;;;12.99;44.64;99434.09;4950619;28;20110;-79
2022/03/26 09:31:45;;;;;;;31.95;16.67;;;;;;;13.09;44.24;99438.69;4952299;28;20034;-75
2022/03/26 09:34:10;;;;;;;31.92;16.27;;;;;;;13.14;43.58;99441.41;4955561;28;20114;-76
2022/03/26 09:36:36;;;;;;;32.22;17.50;;;;;;;13.16;43.55;99436.44;4955903;28;20062;-74
2022/03/26 09:39:02;;;;;;;30.98;16.48;;;;;;;13.23;44.06;99427.84;4970131;28;20066;-75
2022/03/26 09:41:28;;;;;;;30.35;15.65;;;;;;;13.37;44.11;99428.78;4955923;28;20035;-75
2022/03/26 09:43:54;;;;;;;28.20;14.90;;;;;;;13.52;43.03;99427.84;4955349;28;20490;-78
2022/03/26 09:46:20;;;;;;;29.42;15.98;;;;;;;13.55;42.88;99423.69;4956106;28;20043;-75
2022/03/26 09:48:46;;;;;;;28.77;15.93;;;;;;;13.59;42.72;99413.72;4956565;28;20039;-72
2022/03/26 09:51:15;;;;;;;35.95;16.55;;;;;;;13.62;42.82;99420.59;4955846;28;20082;-74
2022/03/26 09:53:41;;;;;;;30.53;15.23;;;;;;;13.66;42.30;99419.69;4956230;28;20483;-75
2022/03/26 09:56:07;;;;;;;29.38;16.00;;;;;;;13.72;42.23;99416.88;4955666;28;20579;-75
2022/03/26 09:58:32;;;;;;;25.15;14.80;;;;;;;13.81;42.50;99406.84;4956720;28;20039;-77
2022/03/26 10:00:58;;;;;;;28.85;15.05;;;;;;;13.98;42.15;99409.13;4955704;28;20035;-78
2022/03/26 10:03:23;;;;;;;27.35;14.55;;;;;;;14.11;42.03;99407.56;4955201;28;20046;-72
2022/03/26 10:06:01;;;;;;;22.15;14.23;;;;;;;14.32;40.69;99399.81;4955206;28;20035;-78
2022/03/26 10:08:27;;;;;;;22.55;13.50;;;;;;;14.31;40.69;99403.69;4954114;28;20047;-78
2022/03/26 10:10:52;;;;;;;25.27;12.63;;;;;;;14.35;40.46;99396.47;4955493;28;20033;-75
2022/03/26 10:13:33;;;;;;;25.23;13.45;;;;;;;14.48;39.96;99383.84;4954930;28;20028;-81
2022/03/26 10:16:02;;;;;;;19.35;10.70;;;;;;;14.62;39.06;99399.66;4954982;28;20486;-76
2022/03/26 10:18:34;;;;;;;20.85;11.38;;;;;;;14.63;38.64;99388.34;4956601;28;20106;-75
2022/03/26 10:20:59;;;;;;;21.55;10.82;;;;;;;14.66;38.72;99384.16;4955237;28;20042;-79
2022/03/26 10:23:32;;;;;;;19.15;10.73;;;;;;;14.74;38.16;99380.72;4956170;28;20027;-82
2022/03/26 10:26:11;;;;;;;20.52;10.48;;;;;;;14.84;37.90;99379.75;4957746;28;20041;-75
2022/03/26 10:28:38;;;;;;;16.98;9.98;;;;;;;14.89;38.26;99366.66;4955702;28;20054;-74
2022/03/26 10:34:02;;;;;;;16.50;9.30;;;;;;;15.05;37.31;99363.63;4955002;28;20070;-76
2022/03/26 10:36:27;;;;;;;17.17;9.57;;;;;;;15.11;37.17;99358.81;4954117;28;20039;-76
2022/03/26 10:38:52;;;;;;;16.02;8.65;;;;;;;15.16;37.21;99362.31;4954666;28;20030;-76
2022/03/26 10:41:21;;;;;;;19.63;8.25;;;;;;;15.27;37.06;99364.91;4955695;28;20527;-73
2022/03/26 10:43:46;;;;;;;18.10;12.45;;;;;;;15.37;36.89;99358.34;4955129;28;20027;-73
2022/03/26 10:46:12;;;;;;;17.77;9.40;;;;;;;15.50;35.95;99360.28;4954499;28;20035;-74
2022/03/26 10:48:38;;;;;;;17.75;9.27;;;;;;;15.52;35.50;99362.75;4956188;28;20459;-74
2022/03/26 10:51:10;;;;;;;13.50;8.05;;;;;;;15.48;34.04;99346.78;4955802;28;20055;-74
2022/03/26 10:53:38;;;;;;;18.58;8.23;;;;;;;15.47;34.52;99364.50;4956490;28;20420;-73
2022/03/26 10:56:06;;;;;;;18.55;8.98;;;;;;;15.40;35.04;99366.84;4955886;28;20023;-74
2022/03/26 10:58:33;;;;;;;15.82;8.27;;;;;;;15.37;34.33;99356.41;4956012;28;20394;-73
2022/03/26 11:00:59;;;;;;;18.40;9.48;;;;;;;15.43;35.26;99346.88;4949916;28;20035;-74
2022/03/26 11:03:25;;;;;;;19.60;10.95;;;;;;;15.52;34.58;99341.44;4954763;28;20543;-75
2022/03/26 11:05:55;;;;;;;18.90;10.27;;;;;;;15.54;34.54;99352.22;4954677;28;20031;-74
2022/03/26 11:08:23;;;;;;;20.73;12.10;;;;;;;15.60;34.82;99351.78;4955063;28;20804;-75
2022/03/26 11:10:55;;;;;;;15.00;8.68;;;;;;;15.61;34.81;99333.28;4955060;28;20027;-72
2022/03/26 11:13:23;;;;;;;17.95;9.23;;;;;;;15.74;34.67;99342.69;4953724;28;20031;-72
2022/03/26 11:15:54;;;;;;;16.00;8.43;;;;;;;15.81;33.31;99342.25;4953353;28;20444;-71
2022/03/26 11:18:50;;;;;;;18.85;8.57;;;;;;;15.88;33.00;99340.75;4953263;28;20467;-69
2022/03/26 11:22:15;;;;;;;20.92;11.10;;;;;;;15.93;34.22;99340.63;4952609;28;20031;-69
2022/03/26 11:24:44;;;;;;;23.48;12.35;;;;;;;16.05;33.61;99329.03;4900445;29;20149;-71
2022/03/26 11:27:21;;;;;;;20.75;9.18;;;;;;;16.06;33.80;99336.19;4953481;28;20121;-75